Time;durP1;ratioP1;P1;durP2;ratioP2;P2;SDS_P1;SDS_P2;PMS_P1;PMS_P2;Temp;Humidity;BMP_temperature;BMP_pressure;BME280_temperature;BME280_humidity;BME280_pressure;Samples;Min_cycle;Max_cycle;Signal;HPM_P1;HPM_P2
2023/09/22 00:01:05;;;;;;;;;14.00;13.67;;;;;17.40;99.62;98924.28;6278488;20;3531669;-53
2023/09/22 00:03:33;;;;;;;;;19.33;13.67;;;;;17.63;99.34;98925.50;6281730;20;2492274;-51
2023/09/22 00:06:02;;;;;;;;;21.33;14.67;;;;;17.49;99.78;98926.06;6310717;20;3553506;-53
2023/09/22 00:08:33;;;;;;;;;13.67;13.67;;;;;17.46;99.46;98924.53;6309830;20;3518987;-53
2023/09/22 00:11:10;;;;;;;;;17.00;16.00;;;;;17.38;99.88;98920.88;6313424;20;3559749;-52
2023/09/22 00:13:39;;;;;;;;;19.50;13.50;;;;;17.28;99.84;98929.97;6280152;20;2818048;-50
2023/09/22 00:16:09;;;;;;;;;18.00;15.33;;;;;17.17;100.00;98923.91;6278350;20;3554644;-53
2023/09/22 00:18:38;;;;;;;;;16.33;13.33;;;;;17.18;100.00;98915.63;6275574;20;3534590;-49
2023/09/22 00:21:08;;;;;;;;;16.67;14.00;;;;;17.05;100.00;98915.16;6282632;20;3542980;-51
2023/09/22 00:23:38;;;;;;;;;17.50;16.00;;;;;17.05;100.00;98909.72;6278873;20;2823261;-52
2023/09/22 00:26:05;;;;;;;;;14.00;14.00;;;;;17.24;100.00;98915.00;6279930;20;2492058;-51
2023/09/22 00:28:34;;;;;;;;;15.00;14.00;;;;;17.19;100.00;98920.03;6279321;20;2806642;-52
2023/09/22 00:31:03;;;;;;;;;19.00;15.50;;;;;17.20;100.00;98924.47;6311504;20;2833642;-49
2023/09/22 00:33:31;;;;;;;;;20.00;16.50;;;;;17.33;100.00;98924.91;6279208;20;2483588;-53
2023/09/22 00:36:03;;;;;;;;;17.00;14.00;;;;;17.36;100.00;98912.06;6276497;20;3544044;-51
2023/09/22 00:38:31;;;;;;;;;13.00;12.50;;;;;17.26;100.00;98918.41;6281251;20;2496118;-52
2023/09/22 00:40:59;;;;;;;;;16.67;14.67;;;;;17.14;100.00;98916.97;6281854;20;3532544;-51
2023/09/22 00:43:29;;;;;;;;;17.00;15.00;;;;;17.41;100.00;98912.44;6284401;20;3541908;-52
2023/09/22 00:45:58;;;;;;;;;16.33;16.33;;;;;17.23;100.00;98913.28;6315073;20;3547144;-52
2023/09/22 00:48:34;;;;;;;;;18.00;14.33;;;;;17.18;100.00;98907.47;6307605;20;3522673;-52
2023/09/22 00:51:03;;;;;;;;;17.33;15.00;;;;;17.34;100.00;98910.34;6278617;20;3556569;-53
2023/09/22 00:53:34;;;;;;;;;18.67;15.33;;;;;17.29;100.00;98911.81;6283001;20;3551343;-54
2023/09/22 00:56:02;;;;;;;;;19.00;15.00;;;;;17.31;100.00;98910.66;6306663;20;2483637;-53
2023/09/22 00:58:30;;;;;;;;;16.00;14.00;;;;;17.38;100.00;98912.72;6282125;20;2492020;-48
2023/09/22 01:00:59;;;;;;;;;18.00;18.00;;;;;17.19;100.00;98917.31;6278821;20;2841939;-52
2023/09/22 01:03:30;;;;;;;;;29.67;26.67;;;;;17.38;100.00;98926.28;6279770;20;3600927;-52
2023/09/22 01:05:59;;;;;;;;;21.00;19.67;;;;;17.25;100.00;98916.72;6280272;20;3575252;-51
2023/09/22 01:08:27;;;;;;;;;17.00;15.00;;;;;17.11;100.00;98919.94;6280217;20;2491965;-52
2023/09/22 01:10:56;;;;;;;;;16.50;14.50;;;;;17.22;100.00;98914.31;6277639;20;2814964;-55
2023/09/22 01:13:25;;;;;;;;;20.00;16.00;;;;;17.16;100.00;98914.91;6277595;20;2827456;-52
2023/09/22 01:15:52;;;;;;;;;15.50;15.50;;;;;17.22;100.00;98919.75;6278202;20;2483839;-51
2023/09/22 01:18:21;;;;;;;;;16.50;13.50;;;;;17.17;100.00;98916.63;6280697;20;2806614;-54
2023/09/22 01:20:50;;;;;;;;;13.00;13.00;;;;;17.01;100.00;98914.63;6280360;20;2806664;-53
2023/09/22 01:23:19;;;;;;;;;19.50;16.00;;;;;17.13;100.00;98917.94;6312744;20;2821155;-53
2023/09/22 01:25:48;;;;;;;;;15.50;15.50;;;;;17.16;100.00;98912.22;6276698;20;2814900;-52
2023/09/22 01:28:16;;;;;;;;;19.50;14.50;;;;;17.03;100.00;98911.75;6283148;20;2483632;-52
2023/09/22 01:30:44;;;;;;;;;15.67;13.33;;;;;17.11;100.00;98914.53;6283650;20;3524274;-53
2023/09/22 01:33:13;;;;;;;;;21.00;16.00;;;;;17.01;100.00;98914.63;6307937;20;2490270;-52
2023/09/22 01:35:42;;;;;;;;;18.00;17.00;;;;;17.09;100.00;98922.00;6304587;20;2485773;-51
2023/09/22 01:38:23;;;;;;;;;18.00;16.50;;;;;17.17;100.00;98919.34;6274378;20;2825276;-51
2023/09/22 01:40:53;;;;;;;;;21.00;16.00;;;;;17.00;100.00;98920.19;6276010;20;2841986;-52
2023/09/22 01:43:21;;;;;;;;;19.00;16.00;;;;;17.02;100.00;98923.59;6274761;20;2831014;-54
2023/09/22 01:45:50;;;;;;;;;19.00;15.33;;;;;17.02;100.00;98920.91;6306495;20;3549419;-54
2023/09/22 01:48:19;;;;;;;;;17.33;14.00;;;;;16.94;100.00;98926.25;6305101;20;3536716;-50
2023/09/22 01:50:48;;;;;;;;;15.50;14.50;;;;;16.85;100.00;98920.75;6279471;20;2806515;-51
2023/09/22 01:53:16;;;;;;;;;16.50;16.50;;;;;16.72;100.00;98914.81;6278523;20;2498202;-51
2023/09/22 01:55:46;;;;;;;;;16.50;15.00;;;;;16.87;100.00;98915.16;6278715;20;2819076;-52
2023/09/22 01:58:15;;;;;;;;;16.00;16.00;;;;;17.07;100.00;98908.56;6277550;20;3562822;-50
2023/09/22 02:00:44;;;;;;;;;12.33;12.33;;;;;17.08;100.00;98920.28;6278812;20;3527352;-50
2023/09/22 02:03:12;;;;;;;;;16.67;13.00;;;;;17.09;100.00;98916.56;6308639;20;3524355;-50
2023/09/22 02:05:42;;;;;;;;;17.00;17.00;;;;;17.02;100.00;98918.19;6273440;20;2833786;-54
2023/09/22 02:08:10;;;;;;;;;13.00;13.00;;;;;16.79;100.00;98915.91;6277322;20;2492407;-52
2023/09/22 02:10:38;;;;;;;;;19.00;15.00;;;;;16.86;100.00;98911.59;6276045;20;2490025;-51
2023/09/22 02:13:09;;;;;;;;;18.00;13.67;;;;;16.99;100.00;98913.06;6281530;20;2813852;-53
2023/09/22 02:15:38;;;;;;;;;14.67;14.67;;;;;17.04;100.00;98914.31;6309359;20;3546130;-50
2023/09/22 02:18:07;;;;;;;;;18.67;16.00;;;;;17.09;100.00;98922.00;6280073;20;2827402;-54
2023/09/22 02:20:35;;;;;;;;;16.00;14.00;;;;;17.04;100.00;98913.47;6305784;20;3544077;-51
2023/09/22 02:23:04;;;;;;;;;17.00;16.00;;;;;17.13;100.00;98901.66;6278304;20;2814359;-56
2023/09/22 02:25:34;;;;;;;;;13.33;13.33;;;;;17.04;100.00;98902.63;6278442;20;3536727;-55
2023/09/22 02:28:04;;;;;;;;;17.33;15.33;;;;;16.98;100.00;98900.50;6276000;20;3558710;-51
2023/09/22 02:30:32;;;;;;;;;16.00;14.00;;;;;16.97;100.00;98907.78;6277927;20;2500318;-51
2023/09/22 02:33:01;;;;;;;;;17.00;14.00;;;;;16.90;100.00;98903.97;6282657;20;3547151;-50
2023/09/22 02:35:29;;;;;;;;;18.50;17.00;;;;;17.10;100.00;98910.13;6281259;20;2489985;-53
2023/09/22 02:37:58;;;;;;;;;16.67;14.67;;;;;16.85;100.00;98907.19;6284900;20;3541960;-49
2023/09/22 02:40:25;;;;;;;;;16.00;15.00;;;;;16.82;100.00;98903.91;6279134;20;2492094;-51
2023/09/22 02:42:54;;;;;;;;;17.33;15.67;;;;;16.73;100.00;98902.94;6285729;20;3562756;-50
2023/09/22 02:45:22;;;;;;;;;22.50;17.00;;;;;16.64;100.00;98899.31;6281518;20;2489821;-52
2023/09/22 02:47:53;;;;;;;;;10.33;9.33;;;;;16.78;100.00;98903.38;6282443;20;2778412;-52
2023/09/22 02:50:22;;;;;;;;;19.00;16.33;;;;;16.86;100.00;98908.88;6312269;20;3565927;-55
2023/09/22 02:52:50;;;;;;;;;18.67;15.67;;;;;16.86;100.00;98906.16;6282151;20;3554439;-52
2023/09/22 02:55:19;;;;;;;;;15.50;14.50;;;;;16.66;100.00;98904.56;6283236;20;2802361;-52
2023/09/22 02:57:47;;;;;;;;;14.50;14.00;;;;;16.72;100.00;98909.38;6282647;20;2492058;-51
2023/09/22 03:00:20;;;;;;;;;15.00;15.00;;;;;16.75;100.00;98908.22;6282521;20;2812824;-53
2023/09/22 03:02:52;;;;;;;;;17.67;14.67;;;;;16.59;100.00;98903.47;6278004;20;3535819;-54
2023/09/22 03:05:22;;;;;;;;;18.00;18.00;;;;;16.50;100.00;98907.94;6280521;20;2832550;-51
2023/09/22 03:07:50;;;;;;;;;15.00;12.50;;;;;16.73;100.00;98911.06;6280119;20;2492106;-50
2023/09/22 03:10:19;;;;;;;;;19.00;15.00;;;;;16.61;100.00;98906.88;6282453;20;2492047;-52
2023/09/22 03:12:52;;;;;;;;;18.00;16.50;;;;;16.64;100.00;98907.44;6283425;20;2827467;-50
2023/09/22 03:15:22;;;;;;;;;21.00;14.00;;;;;16.48;100.00;98912.63;6279864;20;2831604;-52
2023/09/22 03:17:51;;;;;;;;;19.00;17.50;;;;;16.52;100.00;98905.06;6282663;20;2830717;-52
2023/09/22 03:20:20;;;;;;;;;18.00;16.00;;;;;16.36;100.00;98903.88;6285256;20;2824350;-51
2023/09/22 03:22:49;;;;;;;;;18.00;16.00;;;;;16.35;100.00;98906.72;6282928;20;2827375;-51
2023/09/22 03:25:19;;;;;;;;;20.67;15.33;;;;;16.35;100.00;98895.88;6280607;20;3573216;-54
2023/09/22 03:27:48;;;;;;;;;19.50;17.50;;;;;16.41;100.00;98904.28;6313015;20;2829451;-50
2023/09/22 03:30:17;;;;;;;;;21.33;18.00;;;;;16.39;100.00;98900.84;6286586;20;3574237;-51
2023/09/22 03:32:46;;;;;;;;;19.00;17.00;;;;;16.34;100.00;98900.47;6280479;20;2829606;-51
2023/09/22 03:35:16;;;;;;;;;17.00;17.00;;;;;16.28;100.00;98892.09;6281319;20;2830559;-52
2023/09/22 03:37:48;;;;;;;;;18.00;15.50;;;;;16.54;100.00;98890.38;6278033;20;2823281;-49
2023/09/22 03:40:30;;;;;;;;;18.00;18.00;;;;;16.76;100.00;98889.06;6280044;20;2839886;-51
2023/09/22 03:43:03;;;;;;;;;21.50;19.00;;;;;16.53;100.00;98882.38;6281019;20;2832572;-49
2023/09/22 03:45:32;;;;;;;;;21.00;16.00;;;;;16.53;100.00;98883.22;6280374;20;2832589;-50
2023/09/22 03:48:03;;;;;;;;;18.00;16.50;;;;;16.76;100.00;98891.78;6282573;20;2837806;-53
2023/09/22 03:50:32;;;;;;;;;20.00;18.00;;;;;16.65;100.00;98890.16;6283722;20;2820157;-51
2023/09/22 03:53:01;;;;;;;;;20.00;17.50;;;;;16.67;100.00;98890.00;6281828;20;2837890;-55
2023/09/22 03:55:32;;;;;;;;;19.00;17.00;;;;;16.74;100.00;98895.66;6280462;20;2839993;-51
2023/09/22 03:58:00;;;;;;;;;21.67;18.67;;;;;16.73;100.00;98897.53;6282609;20;3577394;-48
2023/09/22 04:00:30;;;;;;;;;21.50;16.00;;;;;16.78;100.00;98906.09;6274977;20;2836892;-49
2023/09/22 04:03:00;;;;;;;;;19.00;16.50;;;;;16.70;100.00;98897.84;6281317;20;2836789;-53
2023/09/22 04:05:29;;;;;;;;;21.00;19.00;;;;;16.64;100.00;98907.44;6280790;20;2834703;-53
2023/09/22 04:07:57;;;;;;;;;24.50;20.00;;;;;16.56;100.00;98898.34;6276037;20;2841979;-50
2023/09/22 04:10:26;;;;;;;;;18.00;15.00;;;;;16.64;100.00;98902.00;6282591;20;2817000;-52
2023/09/22 04:12:55;;;;;;;;;19.50;18.50;;;;;16.64;100.00;98902.00;6278295;20;2837875;-53
2023/09/22 04:15:24;;;;;;;;;27.00;22.00;;;;;16.58;100.00;98910.72;6281426;20;3587849;-55
2023/09/22 04:17:54;;;;;;;;;24.33;20.67;;;;;16.72;100.00;98914.81;6276448;20;2838906;-51
2023/09/22 04:20:29;;;;;;;;;23.67;21.67;;;;;16.75;100.00;98908.22;6300511;20;3576342;-52
2023/09/22 04:22:59;;;;;;;;;21.67;20.00;;;;;16.79;100.00;98909.63;6284832;20;3574320;-49
2023/09/22 04:25:33;;;;;;;;;21.33;21.00;;;;;16.52;100.00;98913.22;6284307;20;3576432;-49
2023/09/22 04:28:11;;;;;;;;;25.33;21.67;;;;;16.57;100.00;98911.75;6280179;20;3572205;-54
2023/09/22 04:30:43;;;;;;;;;22.00;20.00;;;;;16.65;100.00;98913.69;6278189;20;2828519;-49
2023/09/22 04:33:12;;;;;;;;;23.33;22.00;;;;;16.76;100.00;98916.19;6280320;20;3579609;-50
2023/09/22 04:35:40;;;;;;;;;24.00;22.50;;;;;16.85;100.00;98917.16;6280047;20;2651336;-52
2023/09/22 04:38:10;;;;;;;;;29.33;25.67;;;;;16.91;100.00;98918.41;6279047;20;3595209;-53
2023/09/22 04:40:40;;;;;;;;;22.67;21.67;;;;;16.82;100.00;98926.44;6282430;20;3576369;-48
2023/09/22 04:43:09;;;;;;;;;23.00;22.67;;;;;17.05;100.00;98920.59;6267743;20;3578388;-54
2023/09/22 04:45:45;;;;;;;;;25.67;22.00;;;;;16.93;100.00;98922.69;6284246;20;3569155;-51
2023/09/22 04:48:16;;;;;;;;;22.33;21.67;;;;;17.08;100.00;98922.97;6273608;20;2841134;-50
2023/09/22 04:50:54;;;;;;;;;27.33;25.00;;;;;17.02;100.00;98915.47;6312540;20;3588860;-53
2023/09/22 04:53:24;;;;;;;;;27.67;27.67;;;;;16.97;100.00;98917.78;6275148;20;3608570;-49
2023/09/22 04:56:04;;;;;;;;;27.33;24.33;;;;;17.05;100.00;98920.59;6280487;20;3597160;-53
2023/09/22 04:58:37;;;;;;;;;29.33;24.67;;;;;17.15;100.00;98926.78;6276495;20;3594134;-53
2023/09/22 05:01:08;;;;;;;;;24.67;22.33;;;;;17.23;100.00;98924.16;6278392;20;3583579;-52
2023/09/22 05:03:37;;;;;;;;;22.33;21.00;;;;;17.15;100.00;98918.66;6280487;20;3583619;-53
2023/09/22 05:06:10;;;;;;;;;26.67;25.33;;;;;17.12;100.00;98924.38;6278436;20;3605502;-53
2023/09/22 05:08:41;;;;;;;;;27.67;23.33;;;;;17.22;100.00;98922.44;6313851;20;3573392;-52
2023/09/22 05:11:11;;;;;;;;;26.33;24.33;;;;;17.31;100.00;98918.78;6275669;20;3590925;-58
2023/09/22 05:13:40;;;;;;;;;29.00;24.67;;;;;17.28;100.00;98910.97;6311863;20;3593037;-56
2023/09/22 05:16:13;;;;;;;;;23.00;22.00;;;;;17.28;100.00;98916.41;6280831;20;3589903;-58
2023/09/22 05:18:42;;;;;;;;;26.67;22.67;;;;;17.17;100.00;98913.94;6281768;20;3578410;-57
2023/09/22 05:21:12;;;;;;;;;30.00;26.75;;;;;17.44;100.00;98914.84;6280221;20;3612891;-57
2023/09/22 05:23:41;;;;;;;;;25.00;23.67;;;;;17.32;100.00;98917.81;6309880;20;1885767;-54
2023/09/22 05:26:10;;;;;;;;;28.33;25.00;;;;;17.40;100.00;98918.84;6310943;20;3593019;-59
2023/09/22 05:28:39;;;;;;;;;26.67;25.33;;;;;17.46;100.00;98918.25;6280236;20;3587170;-59
2023/09/22 05:31:09;;;;;;;;;28.00;23.00;;;;;17.49;100.00;98913.34;6279680;20;3581696;-60
2023/09/22 05:33:41;;;;;;;;;27.00;24.67;;;;;17.72;100.00;98923.69;6280723;20;3589838;-57
2023/09/22 05:36:11;;;;;;;;;25.67;23.00;;;;;17.62;100.00;98918.38;6281307;20;3589877;-56
2023/09/22 05:38:40;;;;;;;;;27.67;24.67;;;;;17.61;100.00;98922.06;6282712;20;3604616;-59
2023/09/22 05:41:11;;;;;;;;;29.67;26.00;;;;;17.53;100.00;98919.31;6281279;20;3598185;-58
2023/09/22 05:43:42;;;;;;;;;29.75;25.00;;;;;17.70;100.00;98921.13;6281222;20;3600359;-57
2023/09/22 05:46:11;;;;;;;;;25.00;23.00;;;;;17.62;100.00;98921.09;6307811;20;3580446;-58
